Norrland — C4KF2 — position and weather

sailwx.info

Track history (hours):
 
Tides and Currents Weather Stations Pressure Air Temp Water Temp Dewpoint Dewpoint Depression Visibility Wind Speed Wind Dir Waves Ship Positions

Norrland

Last reported at 2017-Feb-26 07:32 UTC. Time now 2017-Feb-26 07:39 UTC.
Position N 51°53' E 004°24'.

Length 118 m; draft 7.1 m.

Type: Cargo ship. MMSI: 212521000.

Date/timePositionNaut miles runAvg speedWind from/ knotsBaromVisibWave heightAir tempDewpointWater temp
2017-Feb-26 07:32N 51°53' E 004°24'0 0.0
2017-Feb-26 06:32N 51°53' E 004°24'0 0.0
2017-Feb-26 05:32N 51°53' E 004°24'28 7.0
2017-Feb-26 01:30N 52°09' E 003°46'8 8.5
2017-Feb-26 00:33N 52°17' E 003°46'199 8.6
2017-Feb-25 01:25N 53°58' E 008°31'1011.4
2017-Feb-25 00:33N 53°52' E 008°44'9 9.0
2017-Feb-24 23:33N 53°51' E 008°59'6 6.3
2017-Feb-24 22:33N 53°54' E 009°09'1 1.2
2017-Feb-24 21:33N 53°55' E 009°10'4 4.4
2017-Feb-24 20:33N 53°58' E 009°15'52 6.4
2017-Feb-24 12:30N 54°31' E 010°23'1010.9
2017-Feb-24 11:33N 54°35' E 010°40'1010.4
2017-Feb-24 10:33N 54°36' E 010°57'1010.0
2017-Feb-24 09:33N 54°35' E 011°15'1111.1
2017-Feb-24 08:33N 54°30' E 011°32'1110.8
2017-Feb-24 07:32N 54°26' E 011°50'1111.1
2017-Feb-24 06:33N 54°27' E 012°08'1111.0
2017-Feb-24 05:34N 54°37' E 012°17'5911.7
2017-Feb-24 00:31N 55°02' E 013°50'1111.0
2017-Feb-23 23:33N 55°07' E 014°06'1111.1
2017-Feb-23 22:33N 55°15' E 014°19'1211.6
2017-Feb-23 21:33N 55°24' E 014°32'1211.7
2017-Feb-23 20:33N 55°31' E 014°48'1211.8
2017-Feb-23 19:33N 55°37' E 015°07'1211.9
2017-Feb-23 18:33N 55°43' E 015°25'1211.8
2017-Feb-23 17:33N 55°49' E 015°43'1211.8
2017-Feb-23 16:33N 55°54' E 016°01'1211.8
2017-Feb-23 15:33N 56°00' E 016°19'1212.1
2017-Feb-23 14:33N 56°07' E 016°38'1211.5
2017-Feb-23 13:33N 56°16' E 016°49'1211.6
2017-Feb-23 12:32N 56°28' E 016°54'  
Track history (hours):
 
Tides and Currents Weather Stations Pressure Air Temp Water Temp Dewpoint Dewpoint Depression Visibility Wind Speed Wind Dir Waves Ship Positions

Norrland

Last reported at 2017-Feb-26 07:32 UTC. Time now 2017-Feb-26 07:39 UTC.
Position N 51°53' E 004°24'.

Length 118 m; draft 7.1 m.

Type: Cargo ship. MMSI: 212521000.

Date/timePositionNaut miles runAvg speedWind from/ knotsBaromVisibWave heightAir tempDewpointWater temp
2017-Feb-26 07:32N 51°53' E 004°24'0 0.0
2017-Feb-26 06:32N 51°53' E 004°24'0 0.0
2017-Feb-26 05:32N 51°53' E 004°24'28 7.0
2017-Feb-26 01:30N 52°09' E 003°46'8 8.5
2017-Feb-26 00:33N 52°17' E 003°46'199 8.6
2017-Feb-25 01:25N 53°58' E 008°31'1011.4
2017-Feb-25 00:33N 53°52' E 008°44'9 9.0
2017-Feb-24 23:33N 53°51' E 008°59'6 6.3
2017-Feb-24 22:33N 53°54' E 009°09'1 1.2
2017-Feb-24 21:33N 53°55' E 009°10'4 4.4
2017-Feb-24 20:33N 53°58' E 009°15'52 6.4
2017-Feb-24 12:30N 54°31' E 010°23'1010.9
2017-Feb-24 11:33N 54°35' E 010°40'1010.4
2017-Feb-24 10:33N 54°36' E 010°57'1010.0
2017-Feb-24 09:33N 54°35' E 011°15'1111.1
2017-Feb-24 08:33N 54°30' E 011°32'1110.8
2017-Feb-24 07:32N 54°26' E 011°50'1111.1
2017-Feb-24 06:33N 54°27' E 012°08'1111.0
2017-Feb-24 05:34N 54°37' E 012°17'5911.7
2017-Feb-24 00:31N 55°02' E 013°50'1111.0
2017-Feb-23 23:33N 55°07' E 014°06'1111.1
2017-Feb-23 22:33N 55°15' E 014°19'1211.6
2017-Feb-23 21:33N 55°24' E 014°32'1211.7
2017-Feb-23 20:33N 55°31' E 014°48'1211.8
2017-Feb-23 19:33N 55°37' E 015°07'1211.9
2017-Feb-23 18:33N 55°43' E 015°25'1211.8
2017-Feb-23 17:33N 55°49' E 015°43'1211.8
2017-Feb-23 16:33N 55°54' E 016°01'1211.8
2017-Feb-23 15:33N 56°00' E 016°19'1212.1
2017-Feb-23 14:33N 56°07' E 016°38'1211.5
2017-Feb-23 13:33N 56°16' E 016°49'1211.6
2017-Feb-23 12:32N 56°28' E 016°54'  

Dump ship's entire track history